createdAt,value
2019-03-28T00:00:46.825Z,3.44
2019-03-28T00:03:35.222Z,3.49
2019-03-28T00:06:23.909Z,3.43
2019-03-28T00:09:12.062Z,3.29
2019-03-28T00:12:00.896Z,3.21
2019-03-28T00:14:49.930Z,2.55
2019-03-28T00:17:38.211Z,2.52
2019-03-28T00:20:27.089Z,2.70
2019-03-28T00:23:47.035Z,2.78
2019-03-28T00:26:35.446Z,2.73
2019-03-28T00:29:24.201Z,2.43
2019-03-28T00:32:12.751Z,2.71
2019-03-28T00:35:01.932Z,2.90
2019-03-28T00:37:50.896Z,2.83
2019-03-28T00:40:39.419Z,2.75
2019-03-28T00:43:28.185Z,2.62
2019-03-28T00:46:17.098Z,2.76
2019-03-28T00:49:08.861Z,2.58
2019-03-28T00:51:57.441Z,1.50
2019-03-28T00:54:46.337Z,0.73
2019-03-28T00:57:34.891Z,0.57
2019-03-28T01:00:24.340Z,0.79
2019-03-28T01:03:12.986Z,0.69
2019-03-28T01:06:03.298Z,0.84
2019-03-28T01:08:52.226Z,1.13
2019-03-28T01:11:41.319Z,1.39
2019-03-28T01:14:29.439Z,1.53
2019-03-28T01:17:17.805Z,1.48
2019-03-28T01:20:07.126Z,1.49
2019-03-28T01:22:56.207Z,0.84
2019-03-28T01:25:45.039Z,0.82
2019-03-28T01:28:33.842Z,0.77
2019-03-28T01:31:22.714Z,0.57
2019-03-28T01:34:11.148Z,0.85
2019-03-28T01:36:59.585Z,1.20
2019-03-28T01:39:48.603Z,1.36
2019-03-28T01:42:37.008Z,1.55
2019-03-28T01:45:25.476Z,1.34
2019-03-28T01:48:14.662Z,0.58
2019-03-28T01:51:03.420Z,0.05
2019-03-28T01:53:52.295Z,0.02
2019-03-28T01:56:40.706Z,0.58
2019-03-28T01:59:29.231Z,0.48
2019-03-28T02:02:17.586Z,0.67
2019-03-28T02:05:06.518Z,0.88
2019-03-28T02:07:55.359Z,0.92
2019-03-28T02:10:43.866Z,0.90
2019-03-28T02:13:32.315Z,0.65
2019-03-28T02:16:21.430Z,0.70
2019-03-28T02:19:09.881Z,0.87
2019-03-28T02:21:58.103Z,1.27
2019-03-28T02:24:46.986Z,1.37
2019-03-28T02:27:35.047Z,1.40
2019-03-28T02:30:32.395Z,1.64
2019-03-28T02:33:21.317Z,2.00
2019-03-28T02:36:09.761Z,2.17
2019-03-28T02:38:58.663Z,1.99
2019-03-28T02:41:47.887Z,1.86
2019-03-28T02:44:37.504Z,1.26
2019-03-28T02:47:29.104Z,0.86
2019-03-28T02:50:17.675Z,1.09
2019-03-28T02:53:06.195Z,1.06
2019-03-28T02:55:55.124Z,0.60
2019-03-28T02:58:44.149Z,0.30
2019-03-28T03:01:32.561Z,0.39
2019-03-28T03:04:21.355Z,0.37
2019-03-28T03:07:11.324Z,0.80
2019-03-28T03:09:59.769Z,1.17
2019-03-28T03:12:48.100Z,1.20
2019-03-28T03:15:36.403Z,1.33
2019-03-28T03:18:24.738Z,1.48
2019-03-28T03:21:13.843Z,1.56
2019-03-28T03:24:03.257Z,1.61
2019-03-28T03:26:51.835Z,1.67
2019-03-28T03:29:40.028Z,1.62
2019-03-28T03:32:28.404Z,1.64
2019-03-28T03:35:17.494Z,1.42
2019-03-28T03:38:06.398Z,1.29
2019-03-28T03:40:55.097Z,1.43
2019-03-28T03:43:43.198Z,1.58
2019-03-28T03:46:32.062Z,1.65
2019-03-28T03:49:20.778Z,1.65
2019-03-28T03:52:09.352Z,1.36
2019-03-28T03:54:57.766Z,1.40
2019-03-28T03:57:47.455Z,1.19
2019-03-28T04:00:37.263Z,1.40
2019-03-28T04:03:25.410Z,1.46
2019-03-28T04:06:13.940Z,1.20
2019-03-28T04:09:02.266Z,1.22
2019-03-28T04:11:50.744Z,1.09
2019-03-28T04:14:38.911Z,1.17
2019-03-28T04:17:27.425Z,1.31
2019-03-28T04:20:15.892Z,1.18
2019-03-28T04:23:04.901Z,1.29
2019-03-28T04:25:53.015Z,1.23
2019-03-28T04:28:41.667Z,1.31
2019-03-28T04:31:30.159Z,1.41
2019-03-28T04:34:18.654Z,1.49
2019-03-28T04:37:07.350Z,1.19
2019-03-28T04:39:55.755Z,1.31
2019-03-28T04:42:46.020Z,1.28
2019-03-28T04:45:34.719Z,1.15
2019-03-28T04:48:23.232Z,0.88
2019-03-28T04:51:12.114Z,1.46
2019-03-28T04:54:00.579Z,1.69
2019-03-28T04:56:49.030Z,1.38
2019-03-28T04:59:37.220Z,0.97
2019-03-28T05:02:25.708Z,0.73
2019-03-28T05:05:14.216Z,0.82
2019-03-28T05:08:03.013Z,1.11
2019-03-28T05:10:51.765Z,0.62
2019-03-28T05:13:43.047Z,0.68
2019-03-28T05:16:31.960Z,0.99
2019-03-28T05:19:21.190Z,1.51
2019-03-28T05:22:10.029Z,1.97
2019-03-28T05:24:58.918Z,2.55
2019-03-28T05:27:48.303Z,2.96
2019-03-28T05:30:37.434Z,3.21
2019-03-28T05:33:26.260Z,3.30
2019-03-28T05:36:14.901Z,3.62
2019-03-28T05:39:04.540Z,3.76
2019-03-28T05:41:52.923Z,4.00
2019-03-28T05:44:40.774Z,4.10
2019-03-28T05:47:29.695Z,4.27
2019-03-28T05:50:18.456Z,4.26
2019-03-28T05:53:06.610Z,4.28
2019-03-28T05:55:56.798Z,4.86
2019-03-28T05:58:45.533Z,4.70
2019-03-28T06:01:33.746Z,4.61
2019-03-28T06:04:22.397Z,4.55
2019-03-28T06:07:10.372Z,4.53
2019-03-28T06:09:59.554Z,4.58
2019-03-28T06:12:48.051Z,4.48
2019-03-28T06:15:40.808Z,4.57
2019-03-28T06:18:28.078Z,4.69
2019-03-28T06:21:16.651Z,4.33
2019-03-28T06:24:05.301Z,4.01
2019-03-28T06:26:53.990Z,3.95
2019-03-28T06:29:42.782Z,4.14
2019-03-28T06:32:42.187Z,3.95
2019-03-28T06:35:22.013Z,4.34
2019-03-28T06:38:10.952Z,4.59
2019-03-28T06:40:59.878Z,4.88
2019-03-28T06:43:48.320Z,4.80
2019-03-28T06:46:36.722Z,4.42
2019-03-28T06:49:25.718Z,4.31
2019-03-28T06:52:13.830Z,4.30
2019-03-28T06:55:02.354Z,4.36
2019-03-28T06:57:50.429Z,4.46
2019-03-28T07:00:38.419Z,4.28
2019-03-28T07:03:26.834Z,4.47
2019-03-28T07:06:15.575Z,4.50
2019-03-28T07:09:05.311Z,4.59
2019-03-28T07:11:54.232Z,4.84
2019-03-28T07:14:42.757Z,5.45
2019-03-28T07:17:32.615Z,5.77
2019-03-28T07:20:21.431Z,5.75
2019-03-28T07:23:09.867Z,5.57
2019-03-28T07:25:58.770Z,5.18
2019-03-28T07:28:47.107Z,4.71
2019-03-28T07:31:36.484Z,4.91
2019-03-28T07:34:24.517Z,5.17
2019-03-28T07:37:13.254Z,4.99
2019-03-28T07:40:01.551Z,5.48
2019-03-28T07:42:50.701Z,5.99
2019-03-28T07:45:39.483Z,6.14
2019-03-28T07:48:27.927Z,6.23
2019-03-28T07:51:16.482Z,6.62
2019-03-28T07:54:05.000Z,7.09
2019-03-28T07:56:53.242Z,6.65
2019-03-28T07:59:44.122Z,7.38
2019-03-28T08:02:32.114Z,7.85
2019-03-28T08:05:20.285Z,8.35
2019-03-28T08:08:08.599Z,8.43
2019-03-28T08:10:56.879Z,8.12
2019-03-28T08:13:45.931Z,8.27
2019-03-28T08:16:35.087Z,8.28
2019-03-28T08:19:23.159Z,8.56
2019-03-28T08:22:11.610Z,8.55
2019-03-28T08:24:59.835Z,8.42
2019-03-28T08:27:47.926Z,8.32
2019-03-28T08:30:37.289Z,7.88
2019-03-28T08:33:26.546Z,8.29
2019-03-28T08:36:16.014Z,9.09
2019-03-28T08:39:05.971Z,9.57
2019-03-28T08:41:55.447Z,9.75
2019-03-28T08:44:43.832Z,9.64
2019-03-28T08:47:32.291Z,9.55
2019-03-28T08:50:20.800Z,8.24
2019-03-28T08:53:08.938Z,8.10
2019-03-28T08:55:57.342Z,8.44
2019-03-28T08:58:45.973Z,8.48
2019-03-28T09:01:37.469Z,8.75
2019-03-28T09:04:25.959Z,9.37
2019-03-28T09:07:17.428Z,9.15
2019-03-28T09:10:06.700Z,9.62
2019-03-28T09:12:55.169Z,9.97
2019-03-28T09:15:44.293Z,9.68
2019-03-28T09:18:33.453Z,9.54
2019-03-28T09:21:23.183Z,9.16
2019-03-28T09:24:11.716Z,9.27
2019-03-28T09:27:00.328Z,8.89
2019-03-28T09:29:49.512Z,9.15
2019-03-28T09:32:37.927Z,9.73
2019-03-28T09:35:30.447Z,10.65
2019-03-28T09:38:18.282Z,10.91
2019-03-28T09:41:06.697Z,10.17
2019-03-28T09:43:56.045Z,10.04
2019-03-28T09:46:45.669Z,10.17
2019-03-28T09:49:34.408Z,10.02
2019-03-28T09:52:22.882Z,9.96
2019-03-28T09:55:11.647Z,9.71
2019-03-28T09:57:59.783Z,9.85
2019-03-28T10:01:01.647Z,10.65
2019-03-28T10:03:37.861Z,10.90
2019-03-28T10:06:26.335Z,10.74
2019-03-28T10:09:15.114Z,10.05
2019-03-28T10:12:04.211Z,9.82
2019-03-28T10:14:52.579Z,9.97
2019-03-28T10:17:42.426Z,9.75
2019-03-28T10:20:30.736Z,9.99
2019-03-28T10:23:19.166Z,9.86
2019-03-28T10:26:08.158Z,9.78
2019-03-28T10:28:57.179Z,10.07
2019-03-28T10:31:45.319Z,9.79
2019-03-28T10:34:33.727Z,10.09
2019-03-28T10:37:22.239Z,10.72
2019-03-28T10:40:10.334Z,10.88
2019-03-28T10:42:58.963Z,10.11
2019-03-28T10:45:47.993Z,10.40
2019-03-28T10:48:36.773Z,10.27
2019-03-28T10:51:25.285Z,10.14
2019-03-28T10:54:20.041Z,9.98
2019-03-28T10:57:13.575Z,10.36
2019-03-28T10:59:53.979Z,10.52
2019-03-28T11:02:42.403Z,10.73
2019-03-28T11:05:30.928Z,10.95
2019-03-28T11:08:19.655Z,10.83
2019-03-28T11:11:08.368Z,10.79
2019-03-28T11:13:56.815Z,10.67
2019-03-28T11:16:48.095Z,10.70
2019-03-28T11:19:35.149Z,10.74
2019-03-28T11:22:24.318Z,10.30
2019-03-28T11:25:13.217Z,11.15
2019-03-28T11:28:01.740Z,10.61
2019-03-28T11:30:50.296Z,10.46
2019-03-28T11:33:38.811Z,10.45
2019-03-28T11:36:27.018Z,9.93
2019-03-28T11:39:15.692Z,11.04
2019-03-28T11:42:04.189Z,10.88
2019-03-28T11:44:52.725Z,10.73
2019-03-28T11:47:41.491Z,11.19
2019-03-28T11:50:30.035Z,10.66
2019-03-28T11:53:18.932Z,9.85
2019-03-28T11:56:08.007Z,10.07
2019-03-28T11:58:56.825Z,10.14
2019-03-28T12:01:45.062Z,10.68
2019-03-28T12:04:33.518Z,10.57
2019-03-28T12:07:22.754Z,11.04
2019-03-28T12:10:11.688Z,11.67
2019-03-28T12:13:00.278Z,12.03
2019-03-28T12:15:48.740Z,12.23
2019-03-28T12:18:36.816Z,11.26
2019-03-28T12:21:25.679Z,12.01
2019-03-28T12:24:14.011Z,12.50
2019-03-28T12:27:04.106Z,12.49
2019-03-28T12:29:53.333Z,12.86
2019-03-28T12:32:42.164Z,12.95
2019-03-28T12:35:30.495Z,12.85
2019-03-28T12:38:19.263Z,12.64
2019-03-28T12:41:07.571Z,12.25
2019-03-28T12:43:56.351Z,11.53
2019-03-28T12:46:44.845Z,11.22
2019-03-28T12:49:33.774Z,10.71
2019-03-28T12:52:22.592Z,11.16
2019-03-28T12:55:10.735Z,11.35
2019-03-28T12:57:59.537Z,11.16
2019-03-28T13:00:48.345Z,11.46
2019-03-28T13:03:45.520Z,12.10
2019-03-28T13:06:28.367Z,12.26
2019-03-28T13:09:17.598Z,12.77
2019-03-28T13:12:02.490Z,12.37
2019-03-28T13:14:33.372Z,12.38
2019-03-28T13:17:03.478Z,12.49
2019-03-28T13:19:33.994Z,12.46
2019-03-28T13:22:04.120Z,12.16
2019-03-28T13:24:35.037Z,12.60
2019-03-28T13:27:11.327Z,12.33
2019-03-28T13:29:41.529Z,12.52
2019-03-28T13:32:11.614Z,12.72
2019-03-28T13:34:42.778Z,12.92
2019-03-28T13:37:12.955Z,12.48
2019-03-28T13:39:43.495Z,12.52
2019-03-28T13:42:13.595Z,12.65
2019-03-28T13:44:44.102Z,11.32
2019-03-28T13:47:14.277Z,10.25
2019-03-28T13:49:44.375Z,10.45
2019-03-28T13:52:14.477Z,10.45
2019-03-28T13:54:44.632Z,11.78
2019-03-28T13:57:14.743Z,11.95
2019-03-28T13:59:44.838Z,10.48
2019-03-28T14:02:15.792Z,11.61
2019-03-28T14:04:45.899Z,12.67
2019-03-28T14:07:17.475Z,13.31
2019-03-28T14:09:47.934Z,14.05
2019-03-28T14:12:18.811Z,14.42
2019-03-28T14:14:49.451Z,13.32
2019-03-28T14:17:20.203Z,11.74
2019-03-28T14:19:50.345Z,10.92
2019-03-28T14:22:20.456Z,10.79
2019-03-28T14:24:50.582Z,10.81
2019-03-28T14:27:20.690Z,12.26
2019-03-28T14:29:50.794Z,13.84
2019-03-28T14:32:21.493Z,13.84
2019-03-28T14:34:51.583Z,13.84
2019-03-28T14:37:22.072Z,15.44
2019-03-28T14:39:52.208Z,15.95
2019-03-28T14:42:22.299Z,16.11
2019-03-28T14:44:52.414Z,16.82
2019-03-28T14:47:22.620Z,15.76
2019-03-28T14:49:52.801Z,13.27
2019-03-28T14:52:22.913Z,12.34
2019-03-28T14:54:53.046Z,11.60
2019-03-28T14:57:23.458Z,11.07
2019-03-28T14:59:54.654Z,10.74
2019-03-28T15:02:24.927Z,10.52
2019-03-28T15:04:55.051Z,10.24
2019-03-28T15:07:25.665Z,10.00
2019-03-28T15:09:56.572Z,10.08
2019-03-28T15:12:27.150Z,9.51
2019-03-28T15:14:57.238Z,9.43
2019-03-28T15:17:27.911Z,9.18
2019-03-28T15:19:57.999Z,9.10
2019-03-28T15:22:28.108Z,9.17
2019-03-28T15:24:58.230Z,9.23
2019-03-28T15:27:28.335Z,9.22
2019-03-28T15:29:59.790Z,9.05
2019-03-28T15:32:30.509Z,9.04
2019-03-28T15:35:01.485Z,8.91
2019-03-28T15:37:31.611Z,8.72
2019-03-28T15:40:01.919Z,8.77
2019-03-28T15:42:32.008Z,8.88
2019-03-28T15:45:02.100Z,8.92
2019-03-28T15:47:33.048Z,9.12
2019-03-28T15:50:03.236Z,9.12
2019-03-28T15:52:36.462Z,9.05
2019-03-28T15:55:07.532Z,8.94
2019-03-28T15:57:40.692Z,8.90
2019-03-28T16:00:10.819Z,8.76
2019-03-28T16:02:41.372Z,8.41
2019-03-28T16:05:11.515Z,8.32
2019-03-28T16:07:42.027Z,8.30
2019-03-28T16:10:14.703Z,8.33
2019-03-28T16:12:44.519Z,8.18
2019-03-28T16:15:15.495Z,7.81
2019-03-28T16:17:45.682Z,7.91
2019-03-28T16:20:16.286Z,7.73
2019-03-28T16:22:47.991Z,7.68
2019-03-28T16:25:18.056Z,7.73
2019-03-28T16:27:48.518Z,7.54
2019-03-28T16:30:23.362Z,7.49
2019-03-28T16:32:53.508Z,7.37
2019-03-28T16:35:23.599Z,7.21
2019-03-28T16:37:54.016Z,7.33
2019-03-28T16:40:24.343Z,7.50
2019-03-28T16:42:54.857Z,7.04
2019-03-28T16:45:24.991Z,7.01
2019-03-28T16:47:55.427Z,6.89
2019-03-28T16:50:25.728Z,6.84
2019-03-28T16:52:56.384Z,6.81
2019-03-28T16:55:27.588Z,6.50
2019-03-28T16:57:58.871Z,6.47
2019-03-28T17:00:39.154Z,6.36
2019-03-28T17:03:09.652Z,6.31
2019-03-28T17:05:40.038Z,6.24
2019-03-28T17:08:10.300Z,5.87
2019-03-28T17:10:44.692Z,6.00
2019-03-28T17:13:16.295Z,5.91
2019-03-28T17:15:46.474Z,5.84
2019-03-28T17:18:18.699Z,5.62
2019-03-28T17:20:48.824Z,5.58
2019-03-28T17:23:19.507Z,5.44
2019-03-28T17:25:49.726Z,5.35
2019-03-28T17:28:19.940Z,5.53
2019-03-28T17:30:51.210Z,5.43
2019-03-28T17:33:21.757Z,5.18
2019-03-28T17:35:51.938Z,5.16
2019-03-28T17:38:22.128Z,5.02
2019-03-28T17:40:52.224Z,5.17
2019-03-28T17:43:23.421Z,5.12
2019-03-28T17:45:53.555Z,5.01
2019-03-28T17:48:23.643Z,4.93
2019-03-28T17:50:53.786Z,4.94
2019-03-28T17:53:24.204Z,4.81
2019-03-28T17:55:55.019Z,4.60
2019-03-28T17:58:25.963Z,4.50
2019-03-28T18:00:56.050Z,4.93
2019-03-28T18:03:31.482Z,4.80
2019-03-28T18:05:58.757Z,4.68
2019-03-28T18:08:29.065Z,5.08
2019-03-28T18:11:00.454Z,5.13
2019-03-28T18:13:31.425Z,5.18
2019-03-28T18:16:02.045Z,5.06
2019-03-28T18:18:32.906Z,4.74
2019-03-28T18:21:03.046Z,4.75
2019-03-28T18:23:33.138Z,4.65
2019-03-28T18:26:03.328Z,4.49
2019-03-28T18:28:33.532Z,4.06
2019-03-28T18:31:05.570Z,3.83
2019-03-28T18:33:36.618Z,3.79
2019-03-28T18:36:07.178Z,3.89
2019-03-28T18:38:37.352Z,4.00
2019-03-28T18:41:07.496Z,4.08
2019-03-28T18:43:37.636Z,3.94
2019-03-28T18:46:07.751Z,4.00
2019-03-28T18:48:38.496Z,4.08
2019-03-28T18:51:09.367Z,3.70
2019-03-28T18:53:39.475Z,3.84
2019-03-28T18:56:09.683Z,3.79
2019-03-28T18:58:39.767Z,3.67
2019-03-28T19:01:10.166Z,3.75
2019-03-28T19:03:40.770Z,3.92
2019-03-28T19:06:14.758Z,4.02
2019-03-28T19:08:46.424Z,4.08
2019-03-28T19:11:17.503Z,3.93
2019-03-28T19:13:47.586Z,3.72
2019-03-28T19:16:17.717Z,3.48
2019-03-28T19:18:48.991Z,3.56
2019-03-28T19:21:19.170Z,3.68
2019-03-28T19:23:50.580Z,3.79
2019-03-28T19:26:21.213Z,3.65
2019-03-28T19:28:51.453Z,3.55
2019-03-28T19:31:22.234Z,3.31
2019-03-28T19:33:52.969Z,3.31
2019-03-28T19:36:23.323Z,3.26
2019-03-28T19:38:53.479Z,3.31
2019-03-28T19:41:24.611Z,3.28
2019-03-28T19:43:57.985Z,2.97
2019-03-28T19:46:28.306Z,3.11
2019-03-28T19:48:58.440Z,3.22
2019-03-28T19:51:29.158Z,3.13
2019-03-28T19:53:59.311Z,3.13
2019-03-28T19:56:29.523Z,3.25
2019-03-28T19:59:00.090Z,3.19
2019-03-28T20:01:30.269Z,3.23
2019-03-28T20:04:00.492Z,3.35
2019-03-28T20:06:30.840Z,3.33
2019-03-28T20:09:01.057Z,3.24
2019-03-28T20:11:31.654Z,3.30
2019-03-28T20:14:02.397Z,3.24
2019-03-28T20:16:33.618Z,3.17
2019-03-28T20:19:04.116Z,3.21
2019-03-28T20:21:34.472Z,3.17
2019-03-28T20:24:04.931Z,3.12
2019-03-28T20:26:35.260Z,3.20
2019-03-28T20:29:06.566Z,3.25
2019-03-28T20:31:39.840Z,3.22
2019-03-28T20:34:09.934Z,2.94
2019-03-28T20:36:43.897Z,2.94
2019-03-28T20:39:12.245Z,2.92
2019-03-28T20:41:42.852Z,2.78
2019-03-28T20:44:13.511Z,2.65
2019-03-28T20:46:43.624Z,2.67
2019-03-28T20:49:13.722Z,2.75
2019-03-28T20:51:46.277Z,2.73
2019-03-28T20:54:16.364Z,2.77
2019-03-28T20:56:47.240Z,2.65
2019-03-28T20:59:35.742Z,2.60
2019-03-28T21:02:24.295Z,2.43
2019-03-28T21:05:14.457Z,2.36
2019-03-28T21:08:04.170Z,2.42
2019-03-28T21:10:52.623Z,2.21
2019-03-28T21:13:41.286Z,2.16
2019-03-28T21:16:33.759Z,2.18
2019-03-28T21:19:21.206Z,1.93
2019-03-28T21:22:09.639Z,1.94
2019-03-28T21:24:58.207Z,1.77
2019-03-28T21:27:47.079Z,1.76
2019-03-28T21:30:46.586Z,1.58
2019-03-28T21:33:29.254Z,1.52
2019-03-28T21:36:29.002Z,1.46
2019-03-28T21:39:09.009Z,1.45
2019-03-28T21:41:57.667Z,1.41
2019-03-28T21:44:46.084Z,1.41
2019-03-28T21:47:34.349Z,1.50
2019-03-28T21:50:22.720Z,1.44
2019-03-28T21:53:11.269Z,1.39
2019-03-28T21:55:59.729Z,1.47
2019-03-28T21:58:48.165Z,1.41
2019-03-28T22:01:36.534Z,1.41
2019-03-28T22:04:25.277Z,1.37
2019-03-28T22:07:14.917Z,1.29
2019-03-28T22:10:04.029Z,1.33
2019-03-28T22:12:52.715Z,1.33
2019-03-28T22:15:41.211Z,1.01
2019-03-28T22:18:29.650Z,1.12
2019-03-28T22:21:18.081Z,1.08
2019-03-28T22:24:06.636Z,1.13
2019-03-28T22:26:55.659Z,0.99
2019-03-28T22:29:44.242Z,0.92
2019-03-28T22:32:36.034Z,1.01
2019-03-28T22:35:25.294Z,1.15
2019-03-28T22:38:14.942Z,1.10
2019-03-28T22:41:03.250Z,0.91
2019-03-28T22:43:52.031Z,0.95
2019-03-28T22:46:40.606Z,0.84
2019-03-28T22:49:29.155Z,0.78
2019-03-28T22:52:17.544Z,0.77
2019-03-28T22:55:06.640Z,0.76
2019-03-28T22:57:56.367Z,0.75
2019-03-28T23:00:46.435Z,0.75
2019-03-28T23:03:35.147Z,0.68
2019-03-28T23:06:24.237Z,0.59
2019-03-28T23:09:13.110Z,0.59
2019-03-28T23:12:01.306Z,0.51
2019-03-28T23:14:50.127Z,0.43
2019-03-28T23:17:39.108Z,0.50
2019-03-28T23:20:29.721Z,0.33
2019-03-28T23:23:18.634Z,0.40
2019-03-28T23:26:09.021Z,0.30
2019-03-28T23:28:57.129Z,0.24
2019-03-28T23:31:46.693Z,0.01
2019-03-28T23:34:36.088Z,0.07
2019-03-28T23:37:26.814Z,0.10
2019-03-28T23:40:16.289Z,0.06
2019-03-28T23:43:04.691Z,0.17
2019-03-28T23:45:53.637Z,0.22
2019-03-28T23:48:42.889Z,0.24
2019-03-28T23:51:31.277Z,0.38
2019-03-28T23:54:19.766Z,0.30
2019-03-28T23:57:08.706Z,0.15
2019-03-28T23:59:57.113Z,0.30
